Time;durP1;ratioP1;P1;durP2;ratioP2;P2;SDS_P1;SDS_P2;PMS_P1;PMS_P2;Temp;Humidity;BMP_temperature;BMP_pressure;BME280_temperature;BME280_humidity;BME280_pressure;Samples;Min_cycle;Max_cycle;Signal;HPM_P1;HPM_P2
2022/09/12 00:00:47;;;;;;;8.27;7.57;;;19.20;99.90;;;;;;4993813;28;20456;-66
2022/09/12 00:03:13;;;;;;;9.80;7.57;;;19.20;99.90;;;;;;4994249;28;20918;-66
2022/09/12 00:05:46;;;;;;;7.37;6.67;;;19.10;99.90;;;;;;4992608;28;20287;-66
2022/09/12 00:08:13;;;;;;;8.30;7.50;;;19.10;99.90;;;;;;4993845;28;20189;-65
2022/09/12 00:10:43;;;;;;;8.20;7.40;;;19.10;99.90;;;;;;4995098;28;20819;-65
2022/09/12 00:13:09;;;;;;;10.17;8.00;;;19.10;99.90;;;;;;4995256;28;20482;-65
2022/09/12 00:15:40;;;;;;;7.07;6.47;;;19.10;99.90;;;;;;4993733;28;20432;-65
2022/09/12 00:18:08;;;;;;;7.73;7.00;;;19.10;99.90;;;;;;4992373;28;20468;-65
2022/09/12 00:20:33;;;;;;;9.40;6.77;;;19.00;99.90;;;;;;4993497;28;20431;-65
2022/09/12 00:22:59;;;;;;;7.20;6.60;;;19.00;99.90;;;;;;4999040;28;20440;-65
2022/09/12 00:25:25;;;;;;;8.97;7.33;;;19.00;99.90;;;;;;4997861;28;20200;-65
2022/09/12 00:27:50;;;;;;;8.03;7.00;;;19.00;99.90;;;;;;4995905;28;20439;-66
2022/09/12 00:30:16;;;;;;;7.90;7.20;;;19.00;99.90;;;;;;4999722;28;20267;-66
2022/09/12 00:32:42;;;;;;;7.53;6.80;;;19.00;99.90;;;;;;4999843;28;20189;-66
2022/09/12 00:35:07;;;;;;;7.70;6.90;;;19.00;99.90;;;;;;4995450;28;20713;-66
2022/09/12 00:37:33;;;;;;;8.03;7.23;;;18.90;99.90;;;;;;4996110;28;20660;-66
2022/09/12 00:39:59;;;;;;;7.97;7.20;;;18.90;99.90;;;;;;4995731;28;20397;-66
2022/09/12 00:42:25;;;;;;;7.43;6.10;;;18.90;99.90;;;;;;4998670;28;20793;-66
2022/09/12 00:44:51;;;;;;;7.80;7.10;;;18.90;99.90;;;;;;4999205;28;20205;-66
2022/09/12 00:47:24;;;;;;;7.20;6.50;;;18.90;99.90;;;;;;5001583;28;20185;-66
2022/09/12 00:50:12;;;;;;;8.30;6.87;;;18.90;99.90;;;;;;4997930;28;20443;-66
2022/09/12 00:52:43;;;;;;;7.80;7.10;;;18.80;99.90;;;;;;4993846;28;20420;-66
2022/09/12 00:55:20;;;;;;;8.53;7.13;;;18.80;99.90;;;;;;4979012;28;20952;-66
2022/09/12 00:57:59;;;;;;;8.47;7.67;;;18.80;99.90;;;;;;4998093;28;20464;-66
2022/09/12 01:00:26;;;;;;;8.80;7.77;;;18.70;99.90;;;;;;4997123;28;20419;-66
2022/09/12 01:02:57;;;;;;;9.20;7.50;;;18.60;99.90;;;;;;4997524;28;20417;-66
2022/09/12 01:05:25;;;;;;;8.87;7.83;;;18.60;99.90;;;;;;4998035;28;21073;-66
2022/09/12 01:07:52;;;;;;;10.90;8.57;;;18.60;99.90;;;;;;4997615;28;20509;-66
2022/09/12 01:10:18;;;;;;;8.83;7.93;;;18.60;99.90;;;;;;4979962;28;20996;-66
2022/09/12 01:12:44;;;;;;;7.70;7.00;;;18.60;99.90;;;;;;4982719;28;20945;-66
2022/09/12 01:15:10;;;;;;;12.30;7.50;;;18.60;99.90;;;;;;4995573;28;20529;-66
2022/09/12 01:17:53;;;;;;;7.93;7.13;;;18.60;99.90;;;;;;4996716;28;20595;-66
2022/09/12 01:21:13;;;;;;;8.33;7.53;;;18.50;99.90;;;;;;4979226;28;20427;-66
2022/09/12 01:24:10;;;;;;;7.70;7.00;;;18.60;99.90;;;;;;4965554;28;20431;-66
2022/09/12 01:27:03;;;;;;;8.70;7.90;;;18.50;99.90;;;;;;4999636;28;20423;-66
2022/09/12 01:29:50;;;;;;;8.10;7.40;;;18.50;99.90;;;;;;4979549;28;20432;-66
2022/09/12 01:32:41;;;;;;;8.40;7.60;;;18.50;99.90;;;;;;4995508;28;20428;-66
2022/09/12 01:35:30;;;;;;;11.03;7.97;;;18.50;99.90;;;;;;4991108;28;20437;-66
2022/09/12 01:37:59;;;;;;;7.73;6.60;;;18.40;99.90;;;;;;4994793;28;20949;-66
2022/09/12 01:40:33;;;;;;;6.67;6.03;;;18.40;99.90;;;;;;4996544;28;20504;-66
2022/09/12 01:43:17;;;;;;;7.93;6.80;;;18.40;99.90;;;;;;4996015;28;20841;-66
2022/09/12 01:46:11;;;;;;;8.60;6.30;;;18.40;99.90;;;;;;4997444;28;20523;-66
2022/09/12 01:48:51;;;;;;;7.10;6.50;;;18.40;99.90;;;;;;4981310;28;20412;-66
2022/09/12 01:51:58;;;;;;;7.60;6.90;;;18.40;99.90;;;;;;4978057;28;20517;-66
2022/09/12 01:54:52;;;;;;;8.27;7.57;;;18.40;99.90;;;;;;4983272;28;20493;-66
2022/09/12 01:57:50;;;;;;;7.00;6.40;;;18.30;99.90;;;;;;5000881;28;20566;-66
2022/09/12 02:00:15;;;;;;;8.33;7.40;;;18.30;99.90;;;;;;4966859;28;20471;-66
2022/09/12 02:03:01;;;;;;;7.40;6.67;;;18.30;99.90;;;;;;4980677;28;20696;-66
2022/09/12 02:05:32;;;;;;;8.40;7.50;;;18.30;99.90;;;;;;4994915;28;20284;-66
2022/09/12 02:08:26;;;;;;;7.67;6.97;;;18.30;99.90;;;;;;4996682;28;20443;-66
2022/09/12 02:10:59;;;;;;;7.23;6.20;;;18.30;99.90;;;;;;4998960;28;20452;-66
2022/09/12 02:13:42;;;;;;;8.90;6.93;;;18.30;99.90;;;;;;4996984;28;20436;-66
2022/09/12 02:16:18;;;;;;;8.20;7.40;;;18.30;99.90;;;;;;4995694;28;20459;-64
2022/09/12 02:18:48;;;;;;;7.33;6.63;;;18.20;99.90;;;;;;4976934;28;21005;-65
2022/09/12 02:21:14;;;;;;;7.83;7.03;;;18.20;99.90;;;;;;4997624;28;20444;-65
2022/09/12 02:23:46;;;;;;;7.93;7.13;;;18.20;99.90;;;;;;4994384;28;20444;-65
2022/09/12 02:26:19;;;;;;;7.70;7.00;;;18.20;99.90;;;;;;4991405;28;20460;-65
2022/09/12 02:28:45;;;;;;;8.07;7.30;;;18.20;99.90;;;;;;4996334;28;20913;-65
2022/09/12 02:31:13;;;;;;;7.80;7.10;;;18.20;99.90;;;;;;4997075;28;20428;-65
2022/09/12 02:34:04;;;;;;;8.03;7.23;;;18.20;99.90;;;;;;4995494;28;20497;-65
2022/09/12 02:36:51;;;;;;;8.10;7.30;;;18.10;99.90;;;;;;4995792;28;20444;-65
2022/09/12 02:39:20;;;;;;;7.20;6.47;;;18.10;99.90;;;;;;4979144;28;20480;-65
2022/09/12 02:41:57;;;;;;;7.83;6.80;;;18.10;99.90;;;;;;4993735;28;20421;-65
2022/09/12 02:44:25;;;;;;;7.03;6.37;;;18.00;99.90;;;;;;4997319;28;20832;-65
2022/09/12 02:46:56;;;;;;;9.13;7.33;;;18.10;99.90;;;;;;4977083;28;20508;-65
2022/09/12 02:49:22;;;;;;;7.77;6.97;;;18.00;99.90;;;;;;4979235;28;20443;-64
2022/09/12 02:51:49;;;;;;;8.90;7.67;;;18.00;99.90;;;;;;4995045;28;20491;-65
2022/09/12 02:54:16;;;;;;;8.40;7.60;;;18.00;99.90;;;;;;4993944;28;20209;-65
2022/09/12 02:56:44;;;;;;;9.77;7.70;;;17.90;99.90;;;;;;4976696;28;20425;-65
2022/09/12 02:59:14;;;;;;;8.23;7.37;;;17.90;99.90;;;;;;4995676;28;20554;-65
2022/09/12 03:01:51;;;;;;;8.83;7.30;;;17.90;99.90;;;;;;4993889;28;20442;-65
2022/09/12 03:04:23;;;;;;;7.70;7.00;;;17.90;99.90;;;;;;4994063;28;20435;-66
2022/09/12 03:06:57;;;;;;;7.80;7.10;;;17.90;99.90;;;;;;4979812;28;20415;-66
2022/09/12 03:09:36;;;;;;;7.97;7.27;;;17.80;99.90;;;;;;4996808;28;20515;-66
2022/09/12 03:12:30;;;;;;;8.47;7.60;;;17.80;99.90;;;;;;4997355;28;20828;-66
2022/09/12 03:15:43;;;;;;;8.07;7.27;;;17.70;99.90;;;;;;4994303;28;20441;-65
2022/09/12 03:18:42;;;;;;;9.50;8.00;;;17.70;99.90;;;;;;4993078;28;20460;-66
2022/09/12 03:21:36;;;;;;;8.70;7.90;;;17.70;99.90;;;;;;4996662;28;20408;-65
2022/09/12 03:24:31;;;;;;;8.27;7.47;;;17.70;99.90;;;;;;4994703;28;20444;-65
2022/09/12 03:27:20;;;;;;;8.00;7.13;;;17.70;99.90;;;;;;4992811;28;20424;-66
2022/09/12 03:29:47;;;;;;;8.03;7.13;;;17.60;99.90;;;;;;4993959;28;20789;-65
2022/09/12 03:32:13;;;;;;;8.60;7.80;;;17.60;99.90;;;;;;4995197;28;20447;-65
2022/09/12 03:34:39;;;;;;;9.77;8.70;;;17.60;99.90;;;;;;4995020;28;20450;-65
2022/09/12 03:37:05;;;;;;;8.80;7.90;;;17.60;99.90;;;;;;4994893;28;20464;-66
2022/09/12 03:39:30;;;;;;;9.37;8.47;;;17.60;99.90;;;;;;4993387;28;20193;-65
2022/09/12 03:41:56;;;;;;;8.20;7.40;;;17.60;99.90;;;;;;4993715;28;20182;-65
2022/09/12 03:44:22;;;;;;;7.83;6.73;;;17.50;99.90;;;;;;4996141;28;20199;-66
2022/09/12 03:46:48;;;;;;;9.23;7.37;;;17.50;99.90;;;;;;4993353;28;20185;-66
2022/09/12 03:49:14;;;;;;;8.80;6.80;;;17.50;99.90;;;;;;4996431;28;20427;-65
2022/09/12 03:51:39;;;;;;;9.93;8.00;;;17.50;99.90;;;;;;4994059;28;20658;-66
2022/09/12 03:54:05;;;;;;;9.10;7.37;;;17.50;99.90;;;;;;4995606;28;20180;-65
2022/09/12 03:56:31;;;;;;;8.07;7.33;;;17.50;99.90;;;;;;4996201;28;20457;-66
2022/09/12 03:58:57;;;;;;;9.20;8.17;;;17.50;99.90;;;;;;5000798;28;20558;-66
2022/09/12 04:01:23;;;;;;;8.37;7.43;;;17.40;99.90;;;;;;4979040;28;20830;-65
2022/09/12 04:03:51;;;;;;;7.70;7.00;;;17.40;99.90;;;;;;4998543;28;20189;-65
2022/09/12 04:06:21;;;;;;;8.03;7.33;;;17.40;99.90;;;;;;4998799;28;20216;-66
2022/09/12 04:08:51;;;;;;;10.50;8.33;;;17.40;99.90;;;;;;4999737;28;20425;-66
2022/09/12 04:11:18;;;;;;;11.93;7.20;;;17.40;99.90;;;;;;4998844;28;20448;-66
2022/09/12 04:13:45;;;;;;;8.57;7.20;;;17.40;99.90;;;;;;4980286;28;20488;-66
2022/09/12 04:16:12;;;;;;;8.53;7.77;;;17.40;99.90;;;;;;4999990;28;20559;-66
2022/09/12 04:18:38;;;;;;;8.07;7.27;;;17.30;99.90;;;;;;5001149;28;21025;-66
2022/09/12 04:21:05;;;;;;;8.37;7.57;;;17.30;99.90;;;;;;4979489;28;20639;-65
2022/09/12 04:23:32;;;;;;;7.90;7.10;;;17.30;99.90;;;;;;5001065;28;20173;-64
2022/09/12 04:26:00;;;;;;;9.43;7.10;;;17.30;99.90;;;;;;4981196;28;21186;-65
2022/09/12 04:28:31;;;;;;;8.50;7.60;;;17.30;99.90;;;;;;4996514;28;20437;-66
2022/09/12 04:31:08;;;;;;;8.80;7.90;;;17.30;99.90;;;;;;5000970;28;20416;-66
2022/09/12 04:33:34;;;;;;;7.87;7.17;;;17.20;99.90;;;;;;4998573;28;20412;-66
2022/09/12 04:36:05;;;;;;;9.83;7.97;;;17.20;99.90;;;;;;4995663;28;20796;-66
2022/09/12 04:38:31;;;;;;;8.00;7.20;;;17.20;99.90;;;;;;4996760;28;20468;-66
2022/09/12 04:40:57;;;;;;;8.07;7.03;;;17.20;99.90;;;;;;4999208;28;20420;-66
2022/09/12 04:43:23;;;;;;;8.10;7.30;;;17.20;99.90;;;;;;4996844;28;20416;-66
2022/09/12 04:45:48;;;;;;;10.97;7.20;;;17.20;99.90;;;;;;4998571;28;20201;-66
2022/09/12 04:48:14;;;;;;;7.90;7.20;;;17.10;99.90;;;;;;4997353;28;20697;-66
2022/09/12 04:50:39;;;;;;;7.87;7.07;;;17.10;99.90;;;;;;4979533;28;20808;-66
2022/09/12 04:53:06;;;;;;;8.87;7.97;;;17.10;99.90;;;;;;4998876;28;21434;-66
2022/09/12 04:55:33;;;;;;;10.97;7.50;;;17.10;99.90;;;;;;4978559;28;20275;-66
2022/09/12 04:58:00;;;;;;;7.40;6.70;;;17.10;99.90;;;;;;4998142;28;20454;-66
2022/09/12 05:00:26;;;;;;;9.30;8.30;;;17.10;99.90;;;;;;4995878;28;20442;-66
2022/09/12 05:02:51;;;;;;;8.07;7.37;;;17.10;99.90;;;;;;5000420;28;20894;-66
2022/09/12 05:05:17;;;;;;;8.20;7.40;;;17.10;99.90;;;;;;4993894;28;20206;-66
2022/09/12 05:07:42;;;;;;;7.73;6.87;;;17.00;99.90;;;;;;4996152;28;20536;-66
2022/09/12 05:10:09;;;;;;;9.77;8.80;;;17.00;99.90;;;;;;4998206;28;20185;-66
2022/09/12 05:12:35;;;;;;;9.13;7.50;;;17.00;99.90;;;;;;4997917;28;20545;-66
2022/09/12 05:15:00;;;;;;;10.20;7.53;;;17.00;99.90;;;;;;4998096;28;20774;-65
2022/09/12 05:17:28;;;;;;;9.70;8.10;;;17.00;99.90;;;;;;4998069;28;20217;-66
2022/09/12 05:19:54;;;;;;;8.20;7.40;;;17.00;99.90;;;;;;4997983;28;20208;-66
2022/09/12 05:22:20;;;;;;;9.43;7.03;;;17.00;99.90;;;;;;4997042;28;20420;-66
2022/09/12 05:24:47;;;;;;;11.20;7.53;;;17.00;99.90;;;;;;4998934;28;20965;-66
2022/09/12 05:27:13;;;;;;;8.67;7.70;;;17.00;99.90;;;;;;4998934;28;20543;-65
2022/09/12 05:29:38;;;;;;;10.73;9.10;;;17.00;99.90;;;;;;4998759;28;20419;-66
2022/09/12 05:32:04;;;;;;;8.27;7.47;;;17.00;99.90;;;;;;4997417;28;20189;-65
2022/09/12 05:34:30;;;;;;;10.20;7.40;;;17.00;99.90;;;;;;4995647;28;20210;-66
2022/09/12 05:36:55;;;;;;;8.50;7.50;;;17.00;99.90;;;;;;4996795;28;20185;-66
2022/09/12 05:39:21;;;;;;;9.33;8.40;;;17.00;99.90;;;;;;4996924;28;20569;-66
2022/09/12 05:41:46;;;;;;;8.20;7.50;;;17.00;99.90;;;;;;4996112;28;20255;-65
2022/09/12 05:44:13;;;;;;;9.20;8.30;;;16.90;99.90;;;;;;4996431;28;20228;-66
2022/09/12 05:46:43;;;;;;;8.87;7.97;;;17.00;99.90;;;;;;4996875;28;20177;-66
2022/09/12 05:49:11;;;;;;;9.67;8.43;;;17.00;99.90;;;;;;4994928;28;20555;-66
2022/09/12 05:51:40;;;;;;;9.50;8.60;;;17.00;99.90;;;;;;4998282;28;20444;-66
2022/09/12 05:54:08;;;;;;;10.17;9.03;;;16.90;99.90;;;;;;5000620;28;20812;-66
2022/09/12 05:56:38;;;;;;;9.73;8.73;;;16.90;99.90;;;;;;4994693;28;20467;-64
2022/09/12 05:59:15;;;;;;;9.70;8.80;;;16.90;99.90;;;;;;4995829;28;20424;-65
2022/09/12 06:01:41;;;;;;;11.83;8.80;;;16.90;99.90;;;;;;4998251;28;20824;-67
2022/09/12 06:04:07;;;;;;;10.83;9.67;;;16.90;99.90;;;;;;4995188;28;20756;-67
2022/09/12 06:06:40;;;;;;;8.90;7.83;;;16.90;99.90;;;;;;4997007;28;20444;-67
2022/09/12 06:09:06;;;;;;;10.70;9.40;;;16.90;99.90;;;;;;4995679;28;20412;-66
2022/09/12 06:11:34;;;;;;;10.57;8.70;;;16.90;99.90;;;;;;4998742;28;20419;-66
2022/09/12 06:14:01;;;;;;;8.93;8.03;;;16.90;99.90;;;;;;4977133;28;20729;-67
2022/09/12 06:16:28;;;;;;;8.83;8.03;;;16.90;99.90;;;;;;4998664;28;20428;-67
2022/09/12 06:18:59;;;;;;;11.20;7.90;;;16.90;99.90;;;;;;4996727;28;20460;-64
2022/09/12 06:21:26;;;;;;;9.33;8.10;;;17.00;99.90;;;;;;4993437;28;20443;-64
2022/09/12 06:23:57;;;;;;;8.20;7.40;;;17.00;99.90;;;;;;4995211;28;20428;-65
2022/09/12 06:26:24;;;;;;;23.33;8.57;;;17.00;99.90;;;;;;4995315;28;20467;-65
2022/09/12 06:28:51;;;;;;;9.07;8.17;;;17.00;99.90;;;;;;4995826;28;20844;-66
2022/09/12 06:31:22;;;;;;;10.30;7.80;;;17.10;99.90;;;;;;4995093;28;20444;-66
2022/09/12 06:33:50;;;;;;;10.63;8.23;;;17.10;99.90;;;;;;4994786;28;20443;-66
2022/09/12 06:36:21;;;;;;;8.97;8.07;;;17.10;99.90;;;;;;4995933;28;20981;-65
2022/09/12 06:38:50;;;;;;;10.10;8.37;;;17.20;99.90;;;;;;4992978;28;20877;-65
2022/09/12 06:41:16;;;;;;;8.77;7.80;;;17.20;99.90;;;;;;4979918;28;20424;-65
2022/09/12 06:43:42;;;;;;;23.63;18.83;;;17.20;99.90;;;;;;4979159;28;20444;-65
2022/09/12 06:46:09;;;;;;;16.53;11.10;;;17.30;99.90;;;;;;4993721;28;20428;-65
2022/09/12 06:48:35;;;;;;;10.47;9.10;;;17.30;99.90;;;;;;4996152;28;20425;-65
2022/09/12 06:51:08;;;;;;;13.47;7.87;;;17.30;99.90;;;;;;4995022;28;20416;-65
2022/09/12 06:53:38;;;;;;;11.80;9.50;;;17.40;99.90;;;;;;4994061;28;20981;-66
2022/09/12 06:56:10;;;;;;;10.43;7.50;;;17.40;99.90;;;;;;4995818;28;20497;-66
2022/09/12 06:58:36;;;;;;;13.77;8.10;;;17.50;99.90;;;;;;4997175;28;20837;-66
2022/09/12 07:01:14;;;;;;;10.70;8.20;;;17.50;99.90;;;;;;4995305;28;20452;-66
2022/09/12 07:03:41;;;;;;;8.87;6.77;;;17.50;99.90;;;;;;4996057;28;20404;-64
2022/09/12 07:06:12;;;;;;;10.80;8.20;;;17.50;99.90;;;;;;4993909;28;20534;-66
2022/09/12 07:08:39;;;;;;;9.10;8.07;;;17.50;99.90;;;;;;4995460;28;20800;-66
2022/09/12 07:11:23;;;;;;;12.00;8.00;;;17.60;99.90;;;;;;4995562;28;20437;-66
2022/09/12 07:13:52;;;;;;;8.17;7.37;;;17.70;99.90;;;;;;4995635;28;20868;-66
2022/09/12 07:16:18;;;;;;;11.40;9.30;;;17.80;99.90;;;;;;4992907;28;20424;-66
2022/09/12 07:18:48;;;;;;;12.97;7.70;;;17.90;99.90;;;;;;4995123;28;20463;-66
2022/09/12 07:21:14;;;;;;;10.90;7.57;;;18.00;99.90;;;;;;4978620;28;20459;-66
2022/09/12 07:23:40;;;;;;;8.20;7.43;;;18.00;99.90;;;;;;4996118;28;20432;-66
2022/09/12 07:26:09;;;;;;;8.23;6.93;;;18.00;99.90;;;;;;4994714;28;20913;-66
2022/09/12 07:28:35;;;;;;;8.57;7.60;;;18.20;99.90;;;;;;4995797;28;20412;-66
2022/09/12 07:31:15;;;;;;;9.10;7.67;;;18.20;99.90;;;;;;4994608;28;20436;-66
2022/09/12 07:33:41;;;;;;;7.73;7.00;;;18.20;99.90;;;;;;4993041;28;20445;-66
2022/09/12 07:36:13;;;;;;;10.20;8.10;;;18.30;99.90;;;;;;4994216;28;20485;-66
2022/09/12 07:38:39;;;;;;;9.93;8.10;;;18.40;99.90;;;;;;4994618;28;20467;-66
2022/09/12 07:41:16;;;;;;;10.53;8.40;;;18.40;99.90;;;;;;4996864;28;21339;-66
2022/09/12 07:43:41;;;;;;;8.63;7.47;;;18.50;99.90;;;;;;4993634;28;20454;-66
2022/09/12 07:46:08;;;;;;;8.47;7.47;;;18.50;99.90;;;;;;4994778;28;20850;-66
2022/09/12 07:48:33;;;;;;;8.73;7.87;;;18.50;99.90;;;;;;4995971;28;20417;-66
2022/09/12 07:51:00;;;;;;;7.43;6.60;;;18.50;99.90;;;;;;4996106;28;20462;-66
2022/09/12 07:53:31;;;;;;;10.70;7.87;;;18.50;99.90;;;;;;4994998;28;20185;-66
2022/09/12 07:55:56;;;;;;;11.83;8.00;;;18.50;99.90;;;;;;4993706;28;20987;-66
2022/09/12 07:58:23;;;;;;;9.43;7.37;;;18.60;99.90;;;;;;4983949;28;20464;-66
2022/09/12 08:00:49;;;;;;;9.50;6.87;;;18.60;99.90;;;;;;4994278;28;20260;-66
2022/09/12 08:03:15;;;;;;;10.30;7.07;;;18.70;99.90;;;;;;4994867;28;20471;-66
2022/09/12 08:05:41;;;;;;;7.97;6.53;;;18.70;99.90;;;;;;4994195;28;20833;-66
2022/09/12 08:08:07;;;;;;;10.13;7.27;;;18.80;99.90;;;;;;4996790;28;20471;-66
2022/09/12 08:10:33;;;;;;;8.27;7.50;;;18.80;99.90;;;;;;4990446;28;20240;-66
2022/09/12 08:12:58;;;;;;;7.93;7.13;;;18.80;99.90;;;;;;4978142;28;21068;-66
2022/09/12 08:15:24;;;;;;;8.13;7.10;;;18.90;99.90;;;;;;4994115;28;20209;-66
2022/09/12 08:17:49;;;;;;;8.30;7.40;;;18.90;99.90;;;;;;4992626;28;20412;-66
2022/09/12 08:20:16;;;;;;;7.50;6.70;;;19.00;99.90;;;;;;4997092;28;20189;-66
2022/09/12 08:22:43;;;;;;;11.37;6.90;;;19.00;99.90;;;;;;4992914;28;20173;-66
2022/09/12 08:25:09;;;;;;;8.07;6.80;;;19.00;99.90;;;;;;4992646;28;20440;-66
2022/09/12 08:27:35;;;;;;;8.70;7.60;;;19.10;99.90;;;;;;4977050;28;20941;-66
2022/09/12 08:30:00;;;;;;;8.07;7.27;;;19.10;99.90;;;;;;4996471;28;20436;-66
2022/09/12 08:32:26;;;;;;;8.13;7.10;;;19.20;99.90;;;;;;4995671;28;20218;-66
2022/09/12 08:34:52;;;;;;;8.50;7.60;;;19.20;99.90;;;;;;4994678;28;20291;-66
2022/09/12 08:37:18;;;;;;;9.87;7.90;;;19.30;99.90;;;;;;4996283;28;20237;-66
2022/09/12 08:39:43;;;;;;;8.33;7.07;;;19.30;99.90;;;;;;4977703;28;20673;-67
2022/09/12 08:42:16;;;;;;;7.67;6.87;;;19.30;99.90;;;;;;4974917;28;20436;-66
2022/09/12 08:44:48;;;;;;;11.80;7.43;;;19.40;99.90;;;;;;4996225;28;20276;-66
2022/09/12 08:47:30;;;;;;;9.80;7.83;;;19.50;99.90;;;;;;4998175;28;20479;-66
2022/09/12 08:50:08;;;;;;;8.07;6.80;;;19.50;99.90;;;;;;4997834;28;20416;-66
2022/09/12 08:53:02;;;;;;;9.80;7.17;;;19.60;99.90;;;;;;4996824;28;20432;-66
2022/09/12 08:55:32;;;;;;;7.43;6.57;;;19.60;99.90;;;;;;4998468;28;20453;-66
2022/09/12 08:58:19;;;;;;;7.27;6.57;;;19.60;99.90;;;;;;5000338;28;20464;-66
2022/09/12 09:00:45;;;;;;;7.27;6.57;;;19.70;99.90;;;;;;4983497;28;20787;-66
2022/09/12 09:03:43;;;;;;;7.87;7.07;;;19.80;99.90;;;;;;4996855;28;20437;-66
2022/09/12 09:06:24;;;;;;;8.93;6.20;;;19.80;99.90;;;;;;4993911;28;20202;-66
2022/09/12 09:09:21;;;;;;;7.10;6.40;;;19.90;99.90;;;;;;4998076;28;20829;-66
2022/09/12 09:12:09;;;;;;;6.77;6.07;;;20.00;99.90;;;;;;4995941;28;20419;-66
2022/09/12 09:14:53;;;;;;;7.10;5.80;;;20.10;99.90;;;;;;4998387;28;20432;-66
2022/09/12 09:17:25;;;;;;;9.70;7.20;;;20.10;99.90;;;;;;4996158;28;20545;-66
2022/09/12 09:20:03;;;;;;;6.93;6.30;;;20.20;99.90;;;;;;4998953;28;20413;-65
2022/09/12 09:22:32;;;;;;;8.70;6.30;;;20.30;99.90;;;;;;4997894;28;20443;-66
2022/09/12 09:25:10;;;;;;;6.97;6.37;;;20.30;99.90;;;;;;4996413;28;20880;-65
2022/09/12 09:28:08;;;;;;;6.80;6.20;;;20.50;99.90;;;;;;4993850;28;20549;-65
2022/09/12 09:30:35;;;;;;;7.80;7.10;;;20.60;99.90;;;;;;4996923;28;20861;-66
2022/09/12 09:33:03;;;;;;;9.67;6.93;;;20.70;99.90;;;;;;4980964;28;20809;-66
2022/09/12 09:35:45;;;;;;;6.90;6.20;;;20.70;99.90;;;;;;4997492;28;20459;-66
2022/09/12 09:38:21;;;;;;;6.17;5.67;;;20.80;99.90;;;;;;4998664;28;20456;-66
2022/09/12 09:41:19;;;;;;;7.90;6.10;;;20.90;99.90;;;;;;4996876;28;20412;-66
2022/09/12 09:43:45;;;;;;;7.27;6.40;;;20.90;99.90;;;;;;4993275;28;20778;-66
2022/09/12 09:46:12;;;;;;;9.93;6.50;;;21.00;99.90;;;;;;4995375;28;20494;-66
2022/09/12 09:48:43;;;;;;;10.20;6.37;;;21.00;99.90;;;;;;4996574;28;20525;-66
2022/09/12 09:51:09;;;;;;;7.50;6.40;;;21.10;99.90;;;;;;4995006;28;20904;-66
2022/09/12 09:53:52;;;;;;;6.33;5.73;;;21.10;99.90;;;;;;4998373;28;20514;-66
2022/09/12 09:56:26;;;;;;;6.57;5.97;;;21.20;99.90;;;;;;4995975;28;20460;-66
2022/09/12 09:58:52;;;;;;;7.37;6.03;;;21.30;99.90;;;;;;4996049;28;20468;-66
2022/09/12 10:01:18;;;;;;;6.60;6.00;;;21.40;99.90;;;;;;4995659;28;20848;-66
2022/09/12 10:03:50;;;;;;;7.33;6.60;;;21.30;99.90;;;;;;4996845;28;20207;-66
2022/09/12 10:06:19;;;;;;;7.00;6.30;;;21.20;99.90;;;;;;4995583;28;20456;-66
2022/09/12 10:08:45;;;;;;;6.77;6.07;;;21.30;99.90;;;;;;4996839;28;20454;-66
2022/09/12 10:11:17;;;;;;;6.70;5.83;;;21.30;99.90;;;;;;4997847;28;20425;-66
2022/09/12 10:13:58;;;;;;;7.77;6.50;;;21.50;99.90;;;;;;4996239;28;20925;-66
2022/09/12 10:16:29;;;;;;;9.53;6.07;;;21.50;99.90;;;;;;4996910;28;20559;-66
2022/09/12 10:19:02;;;;;;;7.10;6.43;;;21.60;99.90;;;;;;4999094;28;20691;-66
2022/09/12 10:21:40;;;;;;;7.70;5.47;;;21.60;99.90;;;;;;4976335;28;20548;-66
2022/09/12 10:24:23;;;;;;;11.93;6.30;;;21.80;99.90;;;;;;4995258;28;20440;-66
2022/09/12 10:27:04;;;;;;;6.13;5.63;;;21.90;99.90;;;;;;4995032;28;20409;-66
2022/09/12 10:29:34;;;;;;;7.13;5.73;;;22.00;99.90;;;;;;4994080;28;20463;-66
2022/09/12 10:32:04;;;;;;;6.53;5.93;;;22.20;99.90;;;;;;4995389;28;20428;-66
2022/09/12 10:34:43;;;;;;;7.17;5.93;;;22.20;99.90;;;;;;4994033;28;20904;-66
2022/09/12 10:37:31;;;;;;;6.37;5.77;;;22.30;99.90;;;;;;4995425;28;20903;-66
2022/09/12 10:39:59;;;;;;;6.20;5.60;;;22.30;99.90;;;;;;4983594;28;20424;-66
2022/09/12 10:42:51;;;;;;;5.90;5.40;;;22.40;99.90;;;;;;4977506;28;20416;-66
2022/09/12 10:45:34;;;;;;;5.93;5.20;;;22.40;99.90;;;;;;4995145;28;20471;-66
2022/09/12 10:48:02;;;;;;;6.10;5.50;;;22.50;99.90;;;;;;4981182;28;20948;-66
2022/09/12 10:50:41;;;;;;;8.10;5.60;;;22.40;99.90;;;;;;4993892;28;20443;-67
2022/09/12 10:53:21;;;;;;;6.23;5.67;;;22.40;99.90;;;;;;4999263;28;20511;-66
2022/09/12 10:56:10;;;;;;;6.00;5.50;;;22.50;99.90;;;;;;4995245;28;20440;-66
2022/09/12 10:59:07;;;;;;;5.73;5.20;;;22.60;99.90;;;;;;4997361;28;20475;-67
2022/09/12 11:01:43;;;;;;;5.83;5.23;;;22.80;99.90;;;;;;4995316;28;20436;-66
2022/09/12 11:04:33;;;;;;;5.93;5.43;;;22.90;99.90;;;;;;4994754;28;20612;-66
2022/09/12 11:07:27;;;;;;;7.83;5.87;;;23.00;99.90;;;;;;4995791;28;20459;-66
2022/09/12 11:10:22;;;;;;;6.43;5.40;;;23.00;99.90;;;;;;4995320;28;20425;-66
2022/09/12 11:13:02;;;;;;;5.80;5.30;;;23.00;99.90;;;;;;4995599;28;20431;-66
2022/09/12 11:15:34;;;;;;;6.20;5.60;;;23.10;99.90;;;;;;4997310;28;20458;-66
2022/09/12 11:18:04;;;;;;;5.73;5.23;;;23.20;99.90;;;;;;4995546;28;20533;-65
2022/09/12 11:21:08;;;;;;;5.30;4.80;;;23.30;99.90;;;;;;4996174;28;20804;-66
2022/09/12 11:23:55;;;;;;;5.53;5.03;;;23.50;99.90;;;;;;4993322;28;20447;-66
2022/09/12 11:26:52;;;;;;;4.93;4.40;;;23.50;99.90;;;;;;4992457;28;21162;-66
2022/09/12 11:29:26;;;;;;;8.10;7.30;;;23.60;99.90;;;;;;4994961;28;20435;-66
2022/09/12 11:32:01;;;;;;;5.00;4.60;;;23.70;99.90;;;;;;4995064;28;20415;-66
2022/09/12 11:34:54;;;;;;;7.13;4.23;;;23.80;99.90;;;;;;4984296;28;20440;-66
2022/09/12 11:37:32;;;;;;;5.17;4.67;;;23.90;99.90;;;;;;4995500;28;20463;-66
2022/09/12 11:40:16;;;;;;;6.03;5.43;;;24.10;99.90;;;;;;4992538;28;20466;-66
2022/09/12 11:42:43;;;;;;;7.90;5.67;;;24.20;99.90;;;;;;4995931;28;20420;-66
2022/09/12 11:45:17;;;;;;;6.40;4.60;;;24.20;99.90;;;;;;4993537;28;20443;-66
2022/09/12 11:47:48;;;;;;;5.33;4.83;;;24.40;99.90;;;;;;4994131;28;20535;-66
2022/09/12 11:50:27;;;;;;;6.60;6.00;;;24.60;99.90;;;;;;4991850;28;20817;-66
2022/09/12 11:52:56;;;;;;;5.60;4.63;;;24.90;99.90;;;;;;4993316;28;20425;-66
2022/09/12 11:55:28;;;;;;;5.67;5.17;;;25.20;99.90;;;;;;4992363;28;20766;-66
2022/09/12 11:57:57;;;;;;;5.57;5.10;;;25.50;99.90;;;;;;4993834;28;20463;-66
2022/09/12 12:00:40;;;;;;;5.60;5.10;;;25.80;99.90;;;;;;4994255;28;20510;-66
2022/09/12 12:03:05;;;;;;;4.93;4.53;;;26.10;99.90;;;;;;4994364;28;20417;-66
2022/09/12 12:05:50;;;;;;;5.07;4.63;;;26.70;99.90;;;;;;4992880;28;20905;-66
2022/09/12 12:08:17;;;;;;;4.43;4.03;;;27.20;99.90;;;;;;4997464;28;20238;-66
2022/09/12 12:10:51;;;;;;;4.10;3.80;;;27.60;99.90;;;;;;4996654;28;20481;-66
2022/09/12 12:13:29;;;;;;;7.20;4.70;;;28.00;99.90;;;;;;4993207;28;20814;-66
2022/09/12 12:16:02;;;;;;;6.90;4.93;;;28.50;99.90;;;;;;4994859;28;20490;-66
2022/09/12 12:18:30;;;;;;;3.50;3.20;;;28.90;99.90;;;;;;4999468;28;20538;-66
2022/09/12 12:21:19;;;;;;;4.70;4.30;;;29.20;99.70;;;;;;4996607;28;20428;-66
2022/09/12 12:24:06;;;;;;;4.83;4.30;;;29.50;97.70;;;;;;4995236;28;20707;-66
2022/09/12 12:26:38;;;;;;;3.70;3.40;;;29.80;96.10;;;;;;5000550;28;20772;-66
2022/09/12 12:29:08;;;;;;;4.17;3.77;;;30.10;94.70;;;;;;4997390;28;20424;-67
2022/09/12 12:32:02;;;;;;;4.00;3.60;;;30.30;94.10;;;;;;4982226;28;20527;-67
2022/09/12 12:34:37;;;;;;;3.70;3.40;;;30.50;92.50;;;;;;4997253;28;20463;-65
2022/09/12 12:37:18;;;;;;;4.03;3.40;;;30.70;90.10;;;;;;4997359;28;20394;-65
2022/09/12 12:39:47;;;;;;;4.00;3.40;;;31.00;87.30;;;;;;4996135;28;20437;-65
2022/09/12 12:42:31;;;;;;;4.23;3.53;;;31.20;85.20;;;;;;4997947;28;20427;-65
2022/09/12 12:44:56;;;;;;;3.90;3.60;;;31.40;81.70;;;;;;4997463;28;20567;-66
2022/09/12 12:47:26;;;;;;;4.20;3.80;;;31.40;81.70;;;;;;4999106;28;20458;-66
2022/09/12 12:49:57;;;;;;;4.90;3.80;;;31.40;77.80;;;;;;4999137;28;20192;-67
2022/09/12 12:52:27;;;;;;;3.93;3.60;;;31.60;77.40;;;;;;4996502;28;20413;-66
2022/09/12 12:55:02;;;;;;;5.93;4.00;;;31.70;76.40;;;;;;4996201;28;20527;-66
2022/09/12 12:57:47;;;;;;;4.57;3.53;;;31.80;74.90;;;;;;4981929;28;20893;-66
2022/09/12 13:00:34;;;;;;;4.20;3.73;;;31.90;73.60;;;;;;4998022;28;20932;-66
2022/09/12 13:03:04;;;;;;;3.77;3.47;;;32.00;71.40;;;;;;4998409;28;20836;-67
2022/09/12 13:05:41;;;;;;;3.93;3.53;;;31.90;70.70;;;;;;4997346;28;20440;-67
2022/09/12 13:08:09;;;;;;;3.90;3.60;;;32.10;68.90;;;;;;4997969;28;20456;-67
2022/09/12 13:10:35;;;;;;;4.03;3.70;;;32.30;67.80;;;;;;4997469;28;20820;-66
2022/09/12 13:13:04;;;;;;;3.80;3.50;;;32.70;65.60;;;;;;4997473;28;20514;-65
2022/09/12 13:15:51;;;;;;;3.93;3.63;;;33.10;65.80;;;;;;4998156;28;20794;-66